sensor_id;sensor_type;location;lat;lon;timestamp;pressure;altitude;pressure_sealevel;temperature;humidity
43147;BME280;28752;48.266;7.402;2022-11-15T00:00:44;99116.47;;;10.86;89.26
43147;BME280;28752;48.266;7.402;2022-11-15T00:03:09;99132.91;;;10.97;89.28
43147;BME280;28752;48.266;7.402;2022-11-15T00:05:35;99143.91;;;11.02;89.49
43147;BME280;28752;48.266;7.402;2022-11-15T00:08:01;99126.13;;;10.95;89.65
43147;BME280;28752;48.266;7.402;2022-11-15T00:10:26;99131.47;;;11.03;88.89
43147;BME280;28752;48.266;7.402;2022-11-15T00:12:51;99122.22;;;11.07;87.65
43147;BME280;28752;48.266;7.402;2022-11-15T00:15:17;99136.97;;;11.10;87.96
43147;BME280;28752;48.266;7.402;2022-11-15T00:17:42;99131.50;;;11.11;87.77
43147;BME280;28752;48.266;7.402;2022-11-15T00:20:08;99133.03;;;11.14;87.64
43147;BME280;28752;48.266;7.402;2022-11-15T00:22:34;99132.53;;;11.10;87.79
43147;BME280;28752;48.266;7.402;2022-11-15T00:24:59;99127.25;;;11.18;86.78
43147;BME280;28752;48.266;7.402;2022-11-15T00:27:24;99116.66;;;11.18;86.91
43147;BME280;28752;48.266;7.402;2022-11-15T00:29:50;99116.34;;;11.22;86.76
43147;BME280;28752;48.266;7.402;2022-11-15T00:32:15;99113.53;;;11.23;87.07
43147;BME280;28752;48.266;7.402;2022-11-15T00:34:40;99114.09;;;11.35;84.89
43147;BME280;28752;48.266;7.402;2022-11-15T00:37:06;99096.50;;;11.34;84.87
43147;BME280;28752;48.266;7.402;2022-11-15T00:39:32;99117.00;;;11.58;83.70
43147;BME280;28752;48.266;7.402;2022-11-15T00:41:58;99116.53;;;11.63;82.76
43147;BME280;28752;48.266;7.402;2022-11-15T00:44:23;99108.59;;;11.71;83.07
43147;BME280;28752;48.266;7.402;2022-11-15T00:46:48;99109.25;;;11.73;82.12
43147;BME280;28752;48.266;7.402;2022-11-15T00:49:14;99104.31;;;11.78;81.90
43147;BME280;28752;48.266;7.402;2022-11-15T00:51:39;99094.69;;;11.77;81.63
43147;BME280;28752;48.266;7.402;2022-11-15T00:54:04;99099.03;;;11.78;82.39
43147;BME280;28752;48.266;7.402;2022-11-15T00:56:30;99088.53;;;11.77;82.40
43147;BME280;28752;48.266;7.402;2022-11-15T00:58:55;99088.09;;;11.81;82.04
43147;BME280;28752;48.266;7.402;2022-11-15T01:01:20;99096.03;;;11.81;81.24
43147;BME280;28752;48.266;7.402;2022-11-15T01:03:46;99092.56;;;11.89;80.76
43147;BME280;28752;48.266;7.402;2022-11-15T01:06:11;99088.91;;;11.90;80.48
43147;BME280;28752;48.266;7.402;2022-11-15T01:08:40;99093.28;;;11.99;79.95
43147;BME280;28752;48.266;7.402;2022-11-15T01:11:11;99086.00;;;12.01;80.04
43147;BME280;28752;48.266;7.402;2022-11-15T01:13:38;99076.69;;;12.05;79.15
43147;BME280;28752;48.266;7.402;2022-11-15T01:16:12;99082.31;;;12.02;80.10
43147;BME280;28752;48.266;7.402;2022-11-15T01:18:37;99075.56;;;12.00;80.27
43147;BME280;28752;48.266;7.402;2022-11-15T01:21:08;99088.66;;;12.01;80.50
43147;BME280;28752;48.266;7.402;2022-11-15T01:23:34;99089.63;;;12.00;80.90
43147;BME280;28752;48.266;7.402;2022-11-15T01:26:00;99086.31;;;11.98;80.92
43147;BME280;28752;48.266;7.402;2022-11-15T01:28:28;99094.44;;;11.97;81.79
43147;BME280;28752;48.266;7.402;2022-11-15T01:30:57;99092.75;;;11.87;82.37
43147;BME280;28752;48.266;7.402;2022-11-15T01:33:23;99085.94;;;11.85;82.46
43147;BME280;28752;48.266;7.402;2022-11-15T01:35:48;99084.41;;;11.82;83.23
43147;BME280;28752;48.266;7.402;2022-11-15T01:38:13;99087.56;;;11.78;83.83
43147;BME280;28752;48.266;7.402;2022-11-15T01:40:39;99075.59;;;11.73;84.04
43147;BME280;28752;48.266;7.402;2022-11-15T01:43:27;99071.16;;;11.74;84.37
43147;BME280;28752;48.266;7.402;2022-11-15T01:45:56;99068.78;;;11.63;84.73
43147;BME280;28752;48.266;7.402;2022-11-15T01:48:30;99059.84;;;11.64;84.69
43147;BME280;28752;48.266;7.402;2022-11-15T01:50:58;99059.16;;;11.53;84.38
43147;BME280;28752;48.266;7.402;2022-11-15T01:53:25;99064.13;;;11.56;83.81
43147;BME280;28752;48.266;7.402;2022-11-15T01:55:52;99061.16;;;11.60;83.27
43147;BME280;28752;48.266;7.402;2022-11-15T01:58:17;99064.63;;;11.52;83.57
43147;BME280;28752;48.266;7.402;2022-11-15T02:00:43;99051.53;;;11.50;83.90
43147;BME280;28752;48.266;7.402;2022-11-15T02:03:09;99053.50;;;11.48;84.55
43147;BME280;28752;48.266;7.402;2022-11-15T02:05:36;99054.81;;;11.44;85.36
43147;BME280;28752;48.266;7.402;2022-11-15T02:08:02;99039.53;;;11.30;86.07
43147;BME280;28752;48.266;7.402;2022-11-15T02:10:27;99045.19;;;11.35;86.08
43147;BME280;28752;48.266;7.402;2022-11-15T02:12:53;99043.34;;;11.35;85.71
43147;BME280;28752;48.266;7.402;2022-11-15T02:15:20;99032.56;;;11.29;86.14
43147;BME280;28752;48.266;7.402;2022-11-15T02:18:10;99040.84;;;11.26;86.49
43147;BME280;28752;48.266;7.402;2022-11-15T02:20:53;99039.50;;;11.22;86.69
43147;BME280;28752;48.266;7.402;2022-11-15T02:32:05;99031.69;;;11.12;87.96
43147;BME280;28752;48.266;7.402;2022-11-15T02:37:16;99019.25;;;11.12;88.06
43147;BME280;28752;48.266;7.402;2022-11-15T02:42:19;99019.09;;;11.14;88.77
43147;BME280;28752;48.266;7.402;2022-11-15T02:45:06;99021.25;;;11.18;88.01
43147;BME280;28752;48.266;7.402;2022-11-15T02:47:39;99016.16;;;11.25;88.13
43147;BME280;28752;48.266;7.402;2022-11-15T02:50:09;99010.38;;;11.30;87.24
43147;BME280;28752;48.266;7.402;2022-11-15T02:52:35;99017.16;;;11.32;86.84
43147;BME280;28752;48.266;7.402;2022-11-15T02:55:01;99015.84;;;11.36;86.80
43147;BME280;28752;48.266;7.402;2022-11-15T02:57:45;99002.44;;;11.38;87.18
43147;BME280;28752;48.266;7.402;2022-11-15T03:00:18;98983.50;;;11.25;87.08
43147;BME280;28752;48.266;7.402;2022-11-15T03:08:37;98996.00;;;11.41;87.14
43147;BME280;28752;48.266;7.402;2022-11-15T03:11:14;98996.31;;;11.37;87.69
43147;BME280;28752;48.266;7.402;2022-11-15T03:13:54;98990.81;;;11.31;88.20
43147;BME280;28752;48.266;7.402;2022-11-15T03:16:31;98982.53;;;11.34;88.63
43147;BME280;28752;48.266;7.402;2022-11-15T03:19:28;98972.97;;;11.33;88.25
43147;BME280;28752;48.266;7.402;2022-11-15T03:21:52;98980.53;;;11.28;88.11
43147;BME280;28752;48.266;7.402;2022-11-15T03:24:21;98990.50;;;11.26;88.80
43147;BME280;28752;48.266;7.402;2022-11-15T03:26:49;98983.03;;;11.21;88.90
43147;BME280;28752;48.266;7.402;2022-11-15T03:29:22;98987.19;;;11.24;88.91
43147;BME280;28752;48.266;7.402;2022-11-15T03:31:57;98994.13;;;11.25;89.39
43147;BME280;28752;48.266;7.402;2022-11-15T03:37:06;98978.38;;;11.23;88.97
43147;BME280;28752;48.266;7.402;2022-11-15T03:39:32;98984.81;;;11.12;89.20
43147;BME280;28752;48.266;7.402;2022-11-15T03:42:32;98989.94;;;11.14;89.55
43147;BME280;28752;48.266;7.402;2022-11-15T03:45:13;98984.47;;;11.15;89.74
43147;BME280;28752;48.266;7.402;2022-11-15T03:47:53;98991.44;;;11.16;90.37
43147;BME280;28752;48.266;7.402;2022-11-15T03:50:23;98982.84;;;11.23;90.54
43147;BME280;28752;48.266;7.402;2022-11-15T03:52:49;98984.22;;;11.27;90.32
43147;BME280;28752;48.266;7.402;2022-11-15T03:55:18;98978.06;;;11.26;90.70
43147;BME280;28752;48.266;7.402;2022-11-15T03:57:44;98981.06;;;11.31;90.62
43147;BME280;28752;48.266;7.402;2022-11-15T04:00:10;98980.69;;;11.26;90.37
43147;BME280;28752;48.266;7.402;2022-11-15T04:02:36;98982.53;;;11.26;90.58
43147;BME280;28752;48.266;7.402;2022-11-15T04:05:01;98973.56;;;11.18;91.13
43147;BME280;28752;48.266;7.402;2022-11-15T04:07:27;98985.34;;;11.16;91.28
43147;BME280;28752;48.266;7.402;2022-11-15T04:09:52;98985.13;;;11.09;91.81
43147;BME280;28752;48.266;7.402;2022-11-15T04:12:37;98980.31;;;11.05;91.94
43147;BME280;28752;48.266;7.402;2022-11-15T04:15:12;98984.78;;;11.04;92.49
43147;BME280;28752;48.266;7.402;2022-11-15T04:17:53;98978.31;;;10.98;92.91
43147;BME280;28752;48.266;7.402;2022-11-15T04:20:29;98976.44;;;10.91;93.37
43147;BME280;28752;48.266;7.402;2022-11-15T04:26:01;98977.09;;;10.93;93.64
43147;BME280;28752;48.266;7.402;2022-11-15T04:28:27;98971.78;;;10.84;94.27
43147;BME280;28752;48.266;7.402;2022-11-15T04:30:52;98969.81;;;10.87;94.52
43147;BME280;28752;48.266;7.402;2022-11-15T04:33:18;98981.69;;;10.82;94.79
43147;BME280;28752;48.266;7.402;2022-11-15T04:35:43;98980.56;;;10.85;94.77
43147;BME280;28752;48.266;7.402;2022-11-15T04:38:29;98977.88;;;10.77;95.61
43147;BME280;28752;48.266;7.402;2022-11-15T04:40:54;98980.84;;;10.74;95.96
43147;BME280;28752;48.266;7.402;2022-11-15T04:43:20;98966.59;;;10.75;96.20
43147;BME280;28752;48.266;7.402;2022-11-15T04:45:45;98973.72;;;10.74;96.55
43147;BME280;28752;48.266;7.402;2022-11-15T04:48:10;98957.66;;;10.68;96.53
43147;BME280;28752;48.266;7.402;2022-11-15T04:50:36;98969.94;;;10.77;96.63
43147;BME280;28752;48.266;7.402;2022-11-15T04:53:01;98962.81;;;10.77;96.71
43147;BME280;28752;48.266;7.402;2022-11-15T04:55:26;98960.00;;;10.79;96.93
43147;BME280;28752;48.266;7.402;2022-11-15T04:57:59;98939.44;;;10.64;97.03
43147;BME280;28752;48.266;7.402;2022-11-15T05:00:25;98964.81;;;10.83;96.90
43147;BME280;28752;48.266;7.402;2022-11-15T05:02:50;98945.78;;;10.80;96.57
43147;BME280;28752;48.266;7.402;2022-11-15T05:05:34;98954.56;;;10.80;96.99
43147;BME280;28752;48.266;7.402;2022-11-15T05:08:00;98952.88;;;10.79;96.74
43147;BME280;28752;48.266;7.402;2022-11-15T05:10:25;98964.97;;;10.82;97.13
43147;BME280;28752;48.266;7.402;2022-11-15T05:12:50;98956.06;;;10.83;97.25
43147;BME280;28752;48.266;7.402;2022-11-15T05:15:16;98953.25;;;10.84;97.24
43147;BME280;28752;48.266;7.402;2022-11-15T05:17:41;98953.72;;;10.80;97.52
43147;BME280;28752;48.266;7.402;2022-11-15T05:20:07;98954.88;;;10.77;97.89
43147;BME280;28752;48.266;7.402;2022-11-15T05:22:32;98954.03;;;10.77;97.29
43147;BME280;28752;48.266;7.402;2022-11-15T05:24:58;98951.41;;;10.77;98.02
43147;BME280;28752;48.266;7.402;2022-11-15T05:27:23;98949.72;;;10.76;97.71
43147;BME280;28752;48.266;7.402;2022-11-15T05:29:48;98949.38;;;10.71;98.65
43147;BME280;28752;48.266;7.402;2022-11-15T05:32:14;98953.88;;;10.78;98.17
43147;BME280;28752;48.266;7.402;2022-11-15T05:34:39;98942.91;;;10.73;98.24
43147;BME280;28752;48.266;7.402;2022-11-15T05:37:05;98936.63;;;10.66;98.75
43147;BME280;28752;48.266;7.402;2022-11-15T05:39:30;98946.56;;;10.72;99.08
43147;BME280;28752;48.266;7.402;2022-11-15T05:42:05;98929.97;;;10.62;99.76
43147;BME280;28752;48.266;7.402;2022-11-15T05:44:32;98940.41;;;10.63;100.00
43147;BME280;28752;48.266;7.402;2022-11-15T05:46:59;98937.59;;;10.65;100.00
43147;BME280;28752;48.266;7.402;2022-11-15T05:49:27;98932.16;;;10.66;100.00
43147;BME280;28752;48.266;7.402;2022-11-15T05:51:56;98936.63;;;10.66;100.00
43147;BME280;28752;48.266;7.402;2022-11-15T05:54:23;98926.34;;;10.63;100.00
43147;BME280;28752;48.266;7.402;2022-11-15T05:56:50;98928.31;;;10.61;100.00
43147;BME280;28752;48.266;7.402;2022-11-15T05:59:16;98938.06;;;10.60;100.00
43147;BME280;28752;48.266;7.402;2022-11-15T06:01:41;98939.59;;;10.63;100.00
43147;BME280;28752;48.266;7.402;2022-11-15T06:04:07;98935.28;;;10.62;100.00
43147;BME280;28752;48.266;7.402;2022-11-15T06:06:32;98940.91;;;10.67;100.00
43147;BME280;28752;48.266;7.402;2022-11-15T06:08:58;98936.56;;;10.58;100.00
43147;BME280;28752;48.266;7.402;2022-11-15T06:11:23;98925.00;;;10.59;100.00
43147;BME280;28752;48.266;7.402;2022-11-15T06:13:48;98923.00;;;10.61;100.00
43147;BME280;28752;48.266;7.402;2022-11-15T06:16:14;98925.88;;;10.68;100.00
43147;BME280;28752;48.266;7.402;2022-11-15T06:18:39;98918.72;;;10.60;100.00
43147;BME280;28752;48.266;7.402;2022-11-15T06:21:05;98934.78;;;10.66;100.00
43147;BME280;28752;48.266;7.402;2022-11-15T06:23:34;98932.16;;;10.66;100.00
43147;BME280;28752;48.266;7.402;2022-11-15T06:26:01;98922.84;;;10.62;100.00
43147;BME280;28752;48.266;7.402;2022-11-15T06:28:31;98925.03;;;10.67;100.00
43147;BME280;28752;48.266;7.402;2022-11-15T06:31:05;98925.03;;;10.67;100.00
43147;BME280;28752;48.266;7.402;2022-11-15T06:33:31;98923.38;;;10.66;100.00
43147;BME280;28752;48.266;7.402;2022-11-15T06:36:02;98925.03;;;10.67;100.00
43147;BME280;28752;48.266;7.402;2022-11-15T06:38:28;98924.03;;;10.68;100.00
43147;BME280;28752;48.266;7.402;2022-11-15T06:40:54;98924.72;;;10.70;100.00
43147;BME280;28752;48.266;7.402;2022-11-15T06:43:19;98919.88;;;10.65;100.00
43147;BME280;28752;48.266;7.402;2022-11-15T06:45:44;98931.34;;;10.74;100.00
43147;BME280;28752;48.266;7.402;2022-11-15T06:48:10;98919.41;;;10.70;100.00
43147;BME280;28752;48.266;7.402;2022-11-15T06:50:35;98926.56;;;10.78;100.00
43147;BME280;28752;48.266;7.402;2022-11-15T06:53:03;98936.16;;;10.79;100.00
43147;BME280;28752;48.266;7.402;2022-11-15T06:55:28;98929.72;;;10.81;100.00
43147;BME280;28752;48.266;7.402;2022-11-15T06:57:54;98930.72;;;10.80;100.00
43147;BME280;28752;48.266;7.402;2022-11-15T07:00:21;98928.88;;;10.81;100.00
43147;BME280;28752;48.266;7.402;2022-11-15T07:02:47;98930.22;;;10.85;100.00
43147;BME280;28752;48.266;7.402;2022-11-15T07:05:13;98926.59;;;10.86;100.00
43147;BME280;28752;48.266;7.402;2022-11-15T07:07:39;98929.91;;;10.88;100.00
43147;BME280;28752;48.266;7.402;2022-11-15T07:10:05;98932.06;;;10.84;100.00
43147;BME280;28752;48.266;7.402;2022-11-15T07:12:30;98933.56;;;10.87;100.00
43147;BME280;28752;48.266;7.402;2022-11-15T07:14:56;98931.59;;;10.97;100.00
43147;BME280;28752;48.266;7.402;2022-11-15T07:17:21;98935.91;;;10.98;100.00
43147;BME280;28752;48.266;7.402;2022-11-15T07:19:46;98928.44;;;10.94;100.00
43147;BME280;28752;48.266;7.402;2022-11-15T07:22:12;98935.09;;;10.98;100.00
43147;BME280;28752;48.266;7.402;2022-11-15T07:24:37;98914.38;;;10.93;100.00
43147;BME280;28752;48.266;7.402;2022-11-15T07:27:02;98925.81;;;11.02;100.00
43147;BME280;28752;48.266;7.402;2022-11-15T07:29:28;98917.53;;;11.05;100.00
43147;BME280;28752;48.266;7.402;2022-11-15T07:31:53;98913.59;;;11.09;100.00
43147;BME280;28752;48.266;7.402;2022-11-15T07:34:19;98913.75;;;11.08;100.00
43147;BME280;28752;48.266;7.402;2022-11-15T07:36:44;98917.91;;;11.10;100.00
43147;BME280;28752;48.266;7.402;2022-11-15T07:39:10;98913.59;;;11.09;100.00
43147;BME280;28752;48.266;7.402;2022-11-15T07:41:37;98914.41;;;11.10;100.00
43147;BME280;28752;48.266;7.402;2022-11-15T07:44:03;98918.41;;;11.14;100.00
43147;BME280;28752;48.266;7.402;2022-11-15T07:46:28;98923.53;;;11.15;100.00
43147;BME280;28752;48.266;7.402;2022-11-15T07:48:54;98927.88;;;11.25;100.00
43147;BME280;28752;48.266;7.402;2022-11-15T07:51:19;98922.22;;;11.28;100.00
43147;BME280;28752;48.266;7.402;2022-11-15T07:53:45;98916.59;;;11.23;100.00
43147;BME280;28752;48.266;7.402;2022-11-15T07:56:11;98912.13;;;11.23;100.00
43147;BME280;28752;48.266;7.402;2022-11-15T07:58:36;98918.94;;;11.34;100.00
43147;BME280;28752;48.266;7.402;2022-11-15T08:01:06;98912.97;;;11.32;100.00
43147;BME280;28752;48.266;7.402;2022-11-15T08:03:33;98923.25;;;11.43;100.00
43147;BME280;28752;48.266;7.402;2022-11-15T08:05:58;98927.91;;;11.41;100.00
43147;BME280;28752;48.266;7.402;2022-11-15T08:08:24;98925.28;;;11.49;100.00
43147;BME280;28752;48.266;7.402;2022-11-15T08:10:49;98922.47;;;11.51;100.00
43147;BME280;28752;48.266;7.402;2022-11-15T08:13:15;98930.75;;;11.56;100.00
43147;BME280;28752;48.266;7.402;2022-11-15T08:15:41;98920.44;;;11.45;100.00
43147;BME280;28752;48.266;7.402;2022-11-15T08:18:10;98920.13;;;11.48;100.00
43147;BME280;28752;48.266;7.402;2022-11-15T08:20:37;98919.63;;;11.44;100.00
43147;BME280;28752;48.266;7.402;2022-11-15T08:23:03;98912.47;;;11.45;100.00
43147;BME280;28752;48.266;7.402;2022-11-15T08:25:31;98922.13;;;11.54;100.00
43147;BME280;28752;48.266;7.402;2022-11-15T08:27:59;98907.00;;;11.46;100.00
43147;BME280;28752;48.266;7.402;2022-11-15T08:30:25;98907.03;;;11.38;100.00
43147;BME280;28752;48.266;7.402;2022-11-15T08:32:51;98919.81;;;11.51;100.00
43147;BME280;28752;48.266;7.402;2022-11-15T08:35:18;98912.84;;;11.50;100.00
43147;BME280;28752;48.266;7.402;2022-11-15T08:37:44;98913.16;;;11.47;100.00
43147;BME280;28752;48.266;7.402;2022-11-15T08:40:09;98920.97;;;11.48;100.00
43147;BME280;28752;48.266;7.402;2022-11-15T08:42:35;98918.97;;;11.50;100.00
43147;BME280;28752;48.266;7.402;2022-11-15T08:45:01;98927.91;;;11.58;100.00
43147;BME280;28752;48.266;7.402;2022-11-15T08:47:26;98915.31;;;11.51;100.00
43147;BME280;28752;48.266;7.402;2022-11-15T08:49:51;98904.88;;;11.58;100.00
43147;BME280;28752;48.266;7.402;2022-11-15T08:52:17;98904.06;;;11.66;100.00
43147;BME280;28752;48.266;7.402;2022-11-15T08:54:43;98902.25;;;11.66;100.00
43147;BME280;28752;48.266;7.402;2022-11-15T08:57:08;98889.16;;;11.65;100.00
43147;BME280;28752;48.266;7.402;2022-11-15T08:59:35;98897.09;;;11.73;100.00
43147;BME280;28752;48.266;7.402;2022-11-15T09:02:00;98884.16;;;11.70;100.00
43147;BME280;28752;48.266;7.402;2022-11-15T09:04:26;98884.47;;;11.75;100.00
43147;BME280;28752;48.266;7.402;2022-11-15T09:06:51;98905.22;;;11.88;100.00
43147;BME280;28752;48.266;7.402;2022-11-15T09:09:17;98884.84;;;11.80;100.00
43147;BME280;28752;48.266;7.402;2022-11-15T09:11:42;98892.94;;;11.87;100.00
43147;BME280;28752;48.266;7.402;2022-11-15T09:14:10;98900.72;;;11.88;100.00
43147;BME280;28752;48.266;7.402;2022-11-15T09:16:35;98893.63;;;11.89;100.00
43147;BME280;28752;48.266;7.402;2022-11-15T09:19:00;98890.44;;;11.85;100.00
43147;BME280;28752;48.266;7.402;2022-11-15T09:21:26;98887.97;;;11.84;100.00
43147;BME280;28752;48.266;7.402;2022-11-15T09:23:52;98897.94;;;11.82;100.00
43147;BME280;28752;48.266;7.402;2022-11-15T09:26:18;98899.41;;;11.76;100.00
43147;BME280;28752;48.266;7.402;2022-11-15T09:28:43;98895.44;;;11.72;100.00
43147;BME280;28752;48.266;7.402;2022-11-15T09:31:09;98894.63;;;11.80;100.00
43147;BME280;28752;48.266;7.402;2022-11-15T09:33:34;98895.78;;;11.77;100.00
43147;BME280;28752;48.266;7.402;2022-11-15T09:36:01;98894.47;;;11.81;100.00
43147;BME280;28752;48.266;7.402;2022-11-15T09:38:27;98890.13;;;11.80;100.00
43147;BME280;28752;48.266;7.402;2022-11-15T09:41:22;98900.25;;;11.85;100.00
43147;BME280;28752;48.266;7.402;2022-11-15T09:49:34;98893.28;;;12.00;100.00
43147;BME280;28752;48.266;7.402;2022-11-15T09:52:00;98893.91;;;12.19;99.45
43147;BME280;28752;48.266;7.402;2022-11-15T09:54:45;98886.13;;;12.25;99.23
43147;BME280;28752;48.266;7.402;2022-11-15T09:57:14;98891.22;;;12.35;98.34
43147;BME280;28752;48.266;7.402;2022-11-15T10:02:27;98880.56;;;12.52;97.26
43147;BME280;28752;48.266;7.402;2022-11-15T10:04:57;98881.34;;;12.60;96.35
43147;BME280;28752;48.266;7.402;2022-11-15T10:07:44;98868.38;;;12.66;96.08
43147;BME280;28752;48.266;7.402;2022-11-15T10:12:37;98867.00;;;12.78;94.51
43147;BME280;28752;48.266;7.402;2022-11-15T10:15:06;98863.81;;;12.83;94.52
43147;BME280;28752;48.266;7.402;2022-11-15T10:20:26;98860.59;;;12.95;93.74
43147;BME280;28752;48.266;7.402;2022-11-15T10:22:56;98855.09;;;12.97;93.31
43147;BME280;28752;48.266;7.402;2022-11-15T10:25:26;98854.50;;;13.10;92.74
43147;BME280;28752;48.266;7.402;2022-11-15T10:28:39;98853.16;;;13.14;93.23
43147;BME280;28752;48.266;7.402;2022-11-15T10:30:44;98837.50;;;13.19;92.56
43147;BME280;28752;48.266;7.402;2022-11-15T10:46:36;98816.78;;;13.14;93.99
43147;BME280;28752;48.266;7.402;2022-11-15T10:52:02;98807.91;;;13.22;93.92
43147;BME280;28752;48.266;7.402;2022-11-15T10:54:33;98794.44;;;13.24;93.30
43147;BME280;28752;48.266;7.402;2022-11-15T10:57:10;98792.63;;;13.24;92.93
43147;BME280;28752;48.266;7.402;2022-11-15T10:59:37;98789.97;;;13.24;93.10
43147;BME280;28752;48.266;7.402;2022-11-15T11:04:55;98792.31;;;13.19;93.81
43147;BME280;28752;48.266;7.402;2022-11-15T11:07:24;98793.69;;;13.15;94.74
43147;BME280;28752;48.266;7.402;2022-11-15T11:10:20;98791.09;;;13.07;95.20
43147;BME280;28752;48.266;7.402;2022-11-15T11:12:46;98784.78;;;13.08;95.31
43147;BME280;28752;48.266;7.402;2022-11-15T11:15:13;98775.44;;;13.12;95.16
43147;BME280;28752;48.266;7.402;2022-11-15T11:18:01;98785.00;;;13.21;95.43
43147;BME280;28752;48.266;7.402;2022-11-15T11:20:36;98782.00;;;13.24;95.18
43147;BME280;28752;48.266;7.402;2022-11-15T11:26:13;98769.06;;;13.21;95.41
43147;BME280;28752;48.266;7.402;2022-11-15T11:34:04;98738.56;;;13.32;91.87
43147;BME280;28752;48.266;7.402;2022-11-15T11:36:46;98730.44;;;13.33;91.44
43147;BME280;28752;48.266;7.402;2022-11-15T11:39:18;98732.00;;;13.43;90.62
43147;BME280;28752;48.266;7.402;2022-11-15T11:44:30;98725.59;;;13.52;90.74
43147;BME280;28752;48.266;7.402;2022-11-15T11:50:14;98720.66;;;13.64;90.31
43147;BME280;28752;48.266;7.402;2022-11-15T11:52:48;98713.41;;;13.73;90.16
43147;BME280;28752;48.266;7.402;2022-11-15T11:55:39;98699.44;;;13.56;90.71
43147;BME280;28752;48.266;7.402;2022-11-15T11:58:23;98700.09;;;13.73;90.49
43147;BME280;28752;48.266;7.402;2022-11-15T12:00:55;98707.34;;;13.79;91.02
43147;BME280;28752;48.266;7.402;2022-11-15T12:09:20;98677.72;;;13.82;90.83
43147;BME280;28752;48.266;7.402;2022-11-15T12:14:40;98673.38;;;13.96;90.99
43147;BME280;28752;48.266;7.402;2022-11-15T12:17:11;98671.72;;;13.95;90.72
43147;BME280;28752;48.266;7.402;2022-11-15T12:19:38;98667.25;;;13.95;90.64
43147;BME280;28752;48.266;7.402;2022-11-15T12:22:20;98659.25;;;13.95;90.51
43147;BME280;28752;48.266;7.402;2022-11-15T12:25:18;98657.78;;;13.93;90.42
43147;BME280;28752;48.266;7.402;2022-11-15T12:27:54;98648.31;;;13.90;90.52
43147;BME280;28752;48.266;7.402;2022-11-15T12:30:22;98637.88;;;13.74;90.86
43147;BME280;28752;48.266;7.402;2022-11-15T12:32:54;98640.00;;;13.78;91.32
43147;BME280;28752;48.266;7.402;2022-11-15T12:35:41;98634.59;;;13.72;91.47
43147;BME280;28752;48.266;7.402;2022-11-15T12:38:53;98628.47;;;13.71;91.33
43147;BME280;28752;48.266;7.402;2022-11-15T12:41:21;98629.28;;;13.72;91.45
43147;BME280;28752;48.266;7.402;2022-11-15T12:43:48;98603.25;;;13.52;91.46
43147;BME280;28752;48.266;7.402;2022-11-15T12:52:06;98623.03;;;13.79;92.27
43147;BME280;28752;48.266;7.402;2022-11-15T12:59:52;98625.38;;;13.89;90.20
43147;BME280;28752;48.266;7.402;2022-11-15T13:02:25;98610.66;;;13.72;90.98
43147;BME280;28752;48.266;7.402;2022-11-15T13:04:53;98617.63;;;13.73;90.37
43147;BME280;28752;48.266;7.402;2022-11-15T13:12:56;98604.53;;;13.71;91.38
43147;BME280;28752;48.266;7.402;2022-11-15T13:15:37;98597.28;;;13.65;91.60
43147;BME280;28752;48.266;7.402;2022-11-15T13:20:50;98581.53;;;13.48;92.29
43147;BME280;28752;48.266;7.402;2022-11-15T13:23:15;98571.34;;;13.52;92.48
43147;BME280;28752;48.266;7.402;2022-11-15T13:28:36;98565.47;;;13.57;92.40
43147;BME280;28752;48.266;7.402;2022-11-15T13:33:48;98547.34;;;13.45;92.60
43147;BME280;28752;48.266;7.402;2022-11-15T13:36:27;98545.31;;;13.47;92.29
43147;BME280;28752;48.266;7.402;2022-11-15T13:41:24;98535.78;;;13.38;93.19
43147;BME280;28752;48.266;7.402;2022-11-15T13:43:50;98526.34;;;13.36;93.24
43147;BME280;28752;48.266;7.402;2022-11-15T13:46:30;98525.97;;;13.39;92.96
43147;BME280;28752;48.266;7.402;2022-11-15T13:49:02;98518.56;;;13.34;93.01
43147;BME280;28752;48.266;7.402;2022-11-15T13:51:39;98510.72;;;13.32;93.36
43147;BME280;28752;48.266;7.402;2022-11-15T13:54:31;98519.47;;;13.41;93.36
43147;BME280;28752;48.266;7.402;2022-11-15T13:59:28;98518.53;;;13.49;93.79
43147;BME280;28752;48.266;7.402;2022-11-15T14:01:55;98518.97;;;13.53;93.72
43147;BME280;28752;48.266;7.402;2022-11-15T14:04:22;98504.22;;;13.50;93.51
43147;BME280;28752;48.266;7.402;2022-11-15T14:06:55;98512.28;;;13.57;93.83
43147;BME280;28752;48.266;7.402;2022-11-15T14:09:30;98514.75;;;13.58;94.20
43147;BME280;28752;48.266;7.402;2022-11-15T14:11:58;98515.19;;;13.62;93.97
43147;BME280;28752;48.266;7.402;2022-11-15T14:14:24;98504.34;;;13.63;93.49
43147;BME280;28752;48.266;7.402;2022-11-15T14:16:53;98507.66;;;13.65;93.22
43147;BME280;28752;48.266;7.402;2022-11-15T14:24:38;98486.88;;;13.54;93.25
43147;BME280;28752;48.266;7.402;2022-11-15T14:27:27;98483.41;;;13.54;93.97
43147;BME280;28752;48.266;7.402;2022-11-15T14:29:54;98482.19;;;13.56;93.87
43147;BME280;28752;48.266;7.402;2022-11-15T14:32:22;98479.06;;;13.53;94.23
43147;BME280;28752;48.266;7.402;2022-11-15T14:34:59;98467.63;;;13.52;94.58
43147;BME280;28752;48.266;7.402;2022-11-15T14:37:30;98461.94;;;13.55;94.76
43147;BME280;28752;48.266;7.402;2022-11-15T14:40:05;98470.09;;;13.54;94.22
43147;BME280;28752;48.266;7.402;2022-11-15T14:42:31;98474.78;;;13.52;94.11
43147;BME280;28752;48.266;7.402;2022-11-15T14:44:57;98469.28;;;13.53;93.73
43147;BME280;28752;48.266;7.402;2022-11-15T14:47:22;98460.59;;;13.44;93.66
43147;BME280;28752;48.266;7.402;2022-11-15T14:49:48;98454.00;;;13.40;93.97
43147;BME280;28752;48.266;7.402;2022-11-15T14:54:51;98450.44;;;13.33;93.21
43147;BME280;28752;48.266;7.402;2022-11-15T14:57:16;98447.69;;;13.26;93.38
43147;BME280;28752;48.266;7.402;2022-11-15T14:59:42;98451.81;;;13.29;93.84
43147;BME280;28752;48.266;7.402;2022-11-15T15:02:24;98432.84;;;13.17;94.12
43147;BME280;28752;48.266;7.402;2022-11-15T15:04:50;98440.81;;;13.17;93.96
43147;BME280;28752;48.266;7.402;2022-11-15T15:07:16;98433.03;;;13.15;94.32